Time;durP1;ratioP1;P1;durP2;ratioP2;P2;SDS_P1;SDS_P2;PMS_P1;PMS_P2;Temp;Humidity;BMP_temperature;BMP_pressure;BME280_temperature;BME280_humidity;BME280_pressure;Samples;Min_cycle;Max_cycle;Signal;HPM_P1;HPM_P2
2021/09/22 00:00:03;;;;;;;10.35;5.57;;;;;;;12.63;100.00;102588.00;6273589;28;20053;-77
2021/09/22 00:03:04;;;;;;;10.23;4.32;;;;;;;12.65;100.00;102582.66;6273082;28;20053;-76
2021/09/22 00:06:05;;;;;;;9.65;4.32;;;;;;;12.66;100.00;102584.38;6273262;28;20060;-77
2021/09/22 00:09:06;;;;;;;7.70;4.43;;;;;;;12.66;100.00;102582.59;6272617;28;20045;-77
2021/09/22 00:12:08;;;;;;;9.73;5.20;;;;;;;12.62;100.00;102575.72;6273428;28;20393;-77
2021/09/22 00:15:13;;;;;;;6.13;4.30;;;;;;;12.66;100.00;102581.75;6273017;28;20053;-76
2021/09/22 00:18:14;;;;;;;11.40;5.30;;;;;;;12.67;100.00;102584.34;6272847;28;20052;-76
2021/09/22 00:21:16;;;;;;;8.40;5.07;;;;;;;12.64;100.00;102584.44;6272984;28;20052;-77
2021/09/22 00:24:17;;;;;;;7.88;4.38;;;;;;;12.66;100.00;102579.97;6272747;28;20045;-77
2021/09/22 00:27:18;;;;;;;8.93;4.20;;;;;;;12.57;100.00;102584.69;6272798;28;20420;-77
2021/09/22 00:30:21;;;;;;;9.75;4.40;;;;;;;12.55;100.00;102584.75;6272858;28;20053;-77
2021/09/22 00:33:22;;;;;;;8.32;4.65;;;;;;;12.57;100.00;102579.41;6272542;28;20049;-76
2021/09/22 00:36:24;;;;;;;12.98;5.75;;;;;;;12.58;100.00;102583.75;6272452;28;20434;-77
2021/09/22 00:39:25;;;;;;;9.20;4.82;;;;;;;12.56;100.00;102580.34;6272628;28;20052;-76
2021/09/22 00:42:26;;;;;;;10.85;4.93;;;;;;;12.58;100.00;102575.84;6312114;22;20048;-80
2021/09/22 00:45:30;;;;;;;8.18;4.43;;;;;;;12.57;100.00;102582.91;6332136;28;20047;-80
2021/09/22 00:48:33;;;;;;;11.43;5.07;;;;;;;12.56;100.00;102572.41;6317062;28;20072;-79
2021/09/22 00:51:34;;;;;;;12.05;5.55;;;;;;;12.56;100.00;102564.50;6326179;28;20048;-79
2021/09/22 00:54:36;;;;;;;10.23;5.90;;;;;;;12.50;100.00;102557.66;6339976;28;20054;-79
2021/09/22 00:57:46;;;;;;;11.52;5.20;;;;;;;12.47;100.00;102559.53;6336407;28;20047;-79
2021/09/22 01:00:49;;;;;;;7.40;4.72;;;;;;;12.42;100.00;102557.91;6340648;28;20059;-79
2021/09/22 01:03:50;;;;;;;9.40;4.80;;;;;;;12.42;100.00;102551.78;6342190;28;20044;-80
2021/09/22 01:06:52;;;;;;;11.93;6.38;;;;;;;12.38;100.00;102548.38;6340678;28;20040;-79
2021/09/22 01:09:53;;;;;;;10.02;5.38;;;;;;;12.42;100.00;102549.13;6339750;28;20059;-80
2021/09/22 01:12:54;;;;;;;13.27;5.05;;;;;;;12.42;100.00;102538.59;6338886;28;20055;-79
2021/09/22 01:15:59;;;;;;;15.27;6.78;;;;;;;12.42;100.00;102543.84;6336596;28;20510;-79
2021/09/22 01:19:00;;;;;;;12.55;6.38;;;;;;;12.40;100.00;102541.28;6336852;28;20051;-79
2021/09/22 01:22:03;;;;;;;10.25;5.47;;;;;;;12.32;100.00;102551.19;6327289;28;20044;-80
2021/09/22 01:25:05;;;;;;;11.25;5.57;;;;;;;12.24;100.00;102553.22;6326902;28;20071;-80
2021/09/22 01:28:07;;;;;;;13.82;6.10;;;;;;;12.28;100.00;102549.56;6328973;28;20047;-80
2021/09/22 01:31:08;;;;;;;10.80;5.15;;;;;;;12.29;100.00;102563.63;6332154;28;20043;-79
2021/09/22 01:34:12;;;;;;;10.30;5.60;;;;;;;12.16;100.00;102568.41;6327344;28;20422;-80
2021/09/22 01:37:14;;;;;;;15.30;6.05;;;;;;;12.13;100.00;102565.88;6326355;28;20059;-80
2021/09/22 01:40:17;;;;;;;12.23;5.30;;;;;;;12.15;100.00;102580.72;6326052;28;20052;-80
2021/09/22 01:43:18;;;;;;;11.02;5.57;;;;;;;12.18;100.00;102567.44;6325850;28;20055;-79
2021/09/22 01:46:20;;;;;;;13.27;6.25;;;;;;;12.21;100.00;102570.88;6326594;28;20048;-80
2021/09/22 01:49:23;;;;;;;12.95;6.43;;;;;;;12.21;100.00;102569.13;6326461;28;20051;-80
2021/09/22 01:52:26;;;;;;;10.90;5.28;;;;;;;12.21;100.00;102568.25;6325635;28;20055;-79
2021/09/22 01:55:27;;;;;;;9.77;5.35;;;;;;;12.24;100.00;102573.44;6325658;28;20052;-79
2021/09/22 01:58:29;;;;;;;11.75;5.70;;;;;;;12.27;100.00;102576.00;6325486;28;20047;-80
2021/09/22 02:01:31;;;;;;;14.05;6.10;;;;;;;12.28;100.00;102570.66;6325809;28;20702;-80
2021/09/22 02:04:32;;;;;;;12.80;6.13;;;;;;;12.26;100.00;102571.59;6325891;28;20048;-80
2021/09/22 02:07:35;;;;;;;10.82;5.57;;;;;;;12.26;100.00;102561.91;6326023;28;20044;-80
2021/09/22 02:10:36;;;;;;;9.57;5.15;;;;;;;12.25;100.00;102554.94;6325432;28;20052;-80
2021/09/22 02:13:38;;;;;;;12.00;5.35;;;;;;;12.24;100.00;102553.22;6323746;28;20052;-80
2021/09/22 02:16:39;;;;;;;11.38;6.20;;;;;;;12.24;100.00;102558.47;6324193;28;20051;-80
2021/09/22 02:19:40;;;;;;;11.57;6.07;;;;;;;12.23;100.00;102551.50;6328870;28;20122;-80
2021/09/22 02:22:43;;;;;;;13.85;6.22;;;;;;;12.22;100.00;102556.78;6328103;28;20059;-80
2021/09/22 02:25:44;;;;;;;9.35;5.13;;;;;;;12.22;100.00;102562.06;6328713;28;20048;-79
2021/09/22 02:28:46;;;;;;;12.10;6.05;;;;;;;12.22;100.00;102559.44;6326476;28;20051;-80
2021/09/22 02:31:47;;;;;;;12.23;5.38;;;;;;;12.20;100.00;102554.22;6324548;28;20052;-80
2021/09/22 02:34:49;;;;;;;12.50;6.30;;;;;;;12.17;100.00;102554.31;6330487;28;20059;-79
2021/09/22 02:37:51;;;;;;;13.07;5.88;;;;;;;12.16;100.00;102556.06;6333478;28;20048;-79
2021/09/22 02:40:53;;;;;;;12.52;6.22;;;;;;;12.19;100.00;102548.09;6330848;28;20392;-79
2021/09/22 02:43:54;;;;;;;13.13;7.25;;;;;;;12.19;100.00;102548.09;6337512;28;20422;-79
2021/09/22 02:46:55;;;;;;;11.02;5.97;;;;;;;12.22;100.00;102543.63;6335062;28;20415;-79
2021/09/22 02:49:57;;;;;;;11.88;6.07;;;;;;;12.22;100.00;102541.88;6333938;28;20518;-79
2021/09/22 02:53:00;;;;;;;15.48;7.97;;;;;;;12.22;100.00;102539.22;6330072;28;20051;-80
2021/09/22 02:56:01;;;;;;;14.10;6.43;;;;;;;12.23;100.00;102546.22;6330298;28;20388;-79
2021/09/22 02:59:03;;;;;;;15.10;6.15;;;;;;;12.26;100.00;102548.75;6330348;28;20423;-80
2021/09/22 03:02:04;;;;;;;9.07;5.43;;;;;;;12.31;100.00;102553.88;6329623;28;20055;-80
2021/09/22 03:05:07;;;;;;;11.55;5.80;;;;;;;12.31;100.00;102552.13;6328582;28;20056;-79
2021/09/22 03:08:10;;;;;;;13.43;5.82;;;;;;;12.28;100.00;102559.25;6327394;28;20051;-80
2021/09/22 03:11:11;;;;;;;12.93;6.65;;;;;;;12.23;100.00;102550.63;6327066;28;20044;-81
2021/09/22 03:14:13;;;;;;;12.95;6.57;;;;;;;12.20;100.00;102556.84;6328363;28;20048;-80
2021/09/22 03:17:14;;;;;;;12.68;6.28;;;;;;;12.18;100.00;102556.91;6328404;28;20059;-80
2021/09/22 03:20:17;;;;;;;12.48;6.18;;;;;;;12.20;100.00;102556.84;6328226;28;20055;-80
2021/09/22 03:23:20;;;;;;;13.55;6.13;;;;;;;12.16;100.00;102549.94;6328409;28;20536;-80
2021/09/22 03:26:22;;;;;;;13.85;7.05;;;;;;;12.13;100.00;102556.19;6327625;28;20047;-80
2021/09/22 03:29:24;;;;;;;14.00;6.70;;;;;;;12.12;100.00;102556.22;6327628;28;20047;-80
2021/09/22 03:32:25;;;;;;;11.95;5.32;;;;;;;12.14;100.00;102555.28;6328129;28;20441;-80
2021/09/22 03:35:27;;;;;;;10.18;5.90;;;;;;;12.15;100.00;102543.81;6326810;28;20445;-80
2021/09/22 03:38:29;;;;;;;18.70;7.28;;;;;;;12.13;100.00;102548.28;6327875;28;20487;-80
2021/09/22 03:41:31;;;;;;;10.70;5.65;;;;;;;12.11;100.00;102555.34;6327141;28;20514;-80
2021/09/22 03:44:32;;;;;;;13.13;6.30;;;;;;;12.11;100.00;102549.22;6325978;28;20052;-80
2021/09/22 03:47:33;;;;;;;13.98;6.38;;;;;;;12.09;100.00;102543.16;6326610;28;20419;-80
2021/09/22 03:50:35;;;;;;;10.88;5.20;;;;;;;12.09;100.00;102544.00;6325797;28;20506;-80
2021/09/22 03:53:38;;;;;;;11.98;6.00;;;;;;;12.06;100.00;102546.72;6324486;28;20048;-79
2021/09/22 03:56:39;;;;;;;12.63;6.53;;;;;;;12.04;100.00;102560.88;6324996;28;20054;-80
2021/09/22 03:59:41;;;;;;;14.27;6.85;;;;;;;11.98;100.00;102555.78;6324137;28;20051;-79
2021/09/22 04:02:42;;;;;;;17.02;6.40;;;;;;;11.99;100.00;102561.03;6323884;28;20685;-80
2021/09/22 04:05:44;;;;;;;18.48;7.55;;;;;;;11.97;100.00;102564.59;6324302;28;20063;-78
2021/09/22 04:08:47;;;;;;;13.45;6.85;;;;;;;11.90;100.00;102556.91;6324171;28;20411;-79
2021/09/22 04:11:48;;;;;;;15.90;6.85;;;;;;;11.91;100.00;102561.25;6324331;28;20048;-80
2021/09/22 04:14:49;;;;;;;14.13;6.93;;;;;;;11.93;100.00;102561.19;6324318;28;20055;-78
2021/09/22 04:17:51;;;;;;;21.13;8.65;;;;;;;11.94;100.00;102568.19;6324378;28;20044;-79
2021/09/22 04:20:52;;;;;;;14.50;7.55;;;;;;;11.90;100.00;102559.53;6324730;28;20054;-79
2021/09/22 04:23:57;;;;;;;17.13;7.28;;;;;;;11.90;100.00;102561.31;6324017;28;20047;-79
2021/09/22 04:26:58;;;;;;;13.45;6.70;;;;;;;11.87;100.00;102556.97;6324290;28;20044;-79
2021/09/22 04:29:59;;;;;;;16.08;8.35;;;;;;;11.90;100.00;102561.31;6323968;28;20059;-79
2021/09/22 04:33:02;;;;;;;16.25;8.05;;;;;;;11.88;100.00;102561.31;6324032;28;20070;-79
2021/09/22 04:36:04;;;;;;;15.65;7.57;;;;;;;11.87;100.00;102556.97;6324281;28;20190;-79
2021/09/22 04:39:08;;;;;;;16.52;7.80;;;;;;;11.87;100.00;102553.47;6323967;28;20591;-80
2021/09/22 04:42:09;;;;;;;16.60;8.18;;;;;;;11.86;100.00;102555.25;6323821;28;20062;-79
2021/09/22 04:45:11;;;;;;;19.75;7.32;;;;;;;11.85;100.00;102557.91;6323606;28;20048;-79
2021/09/22 04:48:13;;;;;;;17.15;7.65;;;;;;;11.79;100.00;102548.41;6323883;28;20048;-78
2021/09/22 04:51:15;;;;;;;15.73;7.70;;;;;;;11.75;100.00;102552.03;6323818;28;20056;-79
2021/09/22 04:54:17;;;;;;;13.68;6.78;;;;;;;11.72;100.00;102554.78;6322958;28;20423;-80
2021/09/22 04:57:19;;;;;;;15.30;7.47;;;;;;;11.67;100.00;102546.09;6323062;28;20056;-79
2021/09/22 05:00:20;;;;;;;12.63;6.68;;;;;;;11.64;100.00;102552.34;6323510;28;20047;-79
2021/09/22 05:03:21;;;;;;;18.27;7.68;;;;;;;11.62;100.00;102559.41;6322901;28;20048;-81
2021/09/22 05:06:23;;;;;;;13.10;6.45;;;;;;;11.63;100.00;102561.16;6324054;28;20415;-80
2021/09/22 05:09:26;;;;;;;12.88;6.63;;;;;;;11.64;100.00;102565.50;6323678;28;20051;-79
2021/09/22 05:12:27;;;;;;;14.82;7.47;;;;;;;11.60;100.00;102566.50;6323518;28;20499;-80
2021/09/22 05:15:29;;;;;;;17.30;7.28;;;;;;;11.57;100.00;102571.84;6323674;28;20063;-81
2021/09/22 05:18:30;;;;;;;15.40;8.10;;;;;;;11.58;100.00;102577.97;6323315;28;20040;-81
2021/09/22 05:21:31;;;;;;;11.43;6.95;;;;;;;11.56;100.00;102575.41;6323503;28;20052;-80
2021/09/22 05:24:34;;;;;;;12.65;6.78;;;;;;;11.54;100.00;102579.84;6322478;28;20044;-81
2021/09/22 05:27:35;;;;;;;14.95;7.18;;;;;;;11.54;100.00;102573.72;6323064;28;20410;-80
2021/09/22 05:30:37;;;;;;;17.45;8.68;;;;;;;11.55;100.00;102573.69;6321968;28;20044;-80
2021/09/22 05:33:38;;;;;;;18.15;7.97;;;;;;;11.57;100.00;102573.63;6320130;28;20403;-79
2021/09/22 05:36:40;;;;;;;15.88;7.93;;;;;;;11.55;100.00;102581.56;6322007;28;20173;-78
2021/09/22 05:39:42;;;;;;;17.42;8.38;;;;;;;11.56;100.00;102580.66;6322406;28;20075;-79
2021/09/22 05:42:44;;;;;;;21.75;9.10;;;;;;;11.55;100.00;102581.56;6322303;28;20052;-79
2021/09/22 05:45:45;;;;;;;21.13;8.85;;;;;;;11.48;100.00;102584.41;6322997;28;20048;-79
2021/09/22 05:48:47;;;;;;;22.15;9.43;;;;;;;11.46;100.00;102581.84;6322741;28;20665;-79
2021/09/22 05:51:48;;;;;;;24.25;9.10;;;;;;;11.50;100.00;102591.38;6322966;28;20044;-78
2021/09/22 05:54:52;;;;;;;24.33;9.27;;;;;;;11.51;100.00;102579.94;6322429;28;20048;-80
2021/09/22 05:57:53;;;;;;;21.15;8.75;;;;;;;11.53;100.00;102587.78;6322135;28;20090;-79
2021/09/22 06:00:56;;;;;;;24.23;9.05;;;;;;;11.50;100.00;102594.00;6322838;28;20419;-79
2021/09/22 06:03:58;;;;;;;17.40;8.32;;;;;;;11.53;100.00;102603.56;6321007;28;20079;-80
2021/09/22 06:06:59;;;;;;;24.92;9.65;;;;;;;11.54;100.00;102602.69;6322422;28;20055;-79
2021/09/22 06:10:02;;;;;;;23.45;9.07;;;;;;;11.56;100.00;102604.34;6327368;28;20487;-79
2021/09/22 06:13:04;;;;;;;19.90;8.27;;;;;;;11.59;100.00;102600.78;6328410;28;20048;-78
2021/09/22 06:16:06;;;;;;;20.20;8.38;;;;;;;11.60;100.00;102598.09;6327263;28;20048;-79
2021/09/22 06:19:09;;;;;;;16.92;7.03;;;;;;;11.67;100.00;102601.41;6327328;28;20045;-79
2021/09/22 06:22:10;;;;;;;17.00;6.95;;;;;;;11.69;100.00;102597.00;6327469;28;20070;-79
2021/09/22 06:25:15;;;;;;;13.90;7.32;;;;;;;11.76;100.00;102601.16;6327681;28;20051;-79
2021/09/22 06:28:17;;;;;;;18.73;7.68;;;;;;;11.75;100.00;102602.06;6327535;28;20418;-78
2021/09/22 06:31:19;;;;;;;18.08;6.22;;;;;;;11.78;100.00;102606.41;6327626;28;20055;-79
2021/09/22 06:34:20;;;;;;;14.45;6.93;;;;;;;11.87;100.00;102607.03;6327651;28;20055;-78
2021/09/22 06:37:21;;;;;;;15.07;7.25;;;;;;;11.82;100.00;102598.41;6326464;28;20491;-78
2021/09/22 06:40:24;;;;;;;19.67;7.28;;;;;;;11.76;100.00;102600.28;6327790;28;20044;-79
2021/09/22 06:43:26;;;;;;;14.82;6.57;;;;;;;11.80;100.00;102599.31;6329524;22;20056;-80
2021/09/22 06:46:27;;;;;;;15.85;6.65;;;;;;;11.78;100.00;102599.34;6300785;28;20048;-82
2021/09/22 06:49:29;;;;;;;15.40;6.68;;;;;;;11.77;100.00;102610.81;6300849;28;20049;-83
2021/09/22 06:52:31;;;;;;;14.63;6.63;;;;;;;11.80;100.00;102602.78;6300482;28;20052;-82
2021/09/22 06:55:33;;;;;;;15.43;6.72;;;;;;;11.87;100.00;102604.38;6300586;28;20415;-83
2021/09/22 06:58:35;;;;;;;16.20;6.40;;;;;;;11.85;100.00;102605.34;6301017;28;20045;-82
2021/09/22 07:01:36;;;;;;;13.48;6.78;;;;;;;11.88;100.00;102600.84;6300966;28;20052;-82
2021/09/22 07:04:37;;;;;;;14.60;6.38;;;;;;;11.90;100.00;102609.59;6301093;28;20044;-84
2021/09/22 07:07:39;;;;;;;15.00;6.82;;;;;;;11.96;100.00;102610.31;6300629;28;20055;-82
2021/09/22 07:10:42;;;;;;;12.35;5.88;;;;;;;12.02;100.00;102615.38;6301162;28;20048;-83
2021/09/22 07:13:44;;;;;;;16.77;7.22;;;;;;;12.09;100.00;102609.91;6300943;28;20055;-83
2021/09/22 07:16:45;;;;;;;14.70;7.25;;;;;;;12.15;100.00;102604.44;6301277;28;20052;-83
2021/09/22 07:19:46;;;;;;;15.70;6.82;;;;;;;12.24;100.00;102611.22;6300976;28;20044;-83
2021/09/22 07:22:48;;;;;;;13.38;6.00;;;;;;;12.24;100.00;102605.94;6300888;28;20055;-83
2021/09/22 07:25:50;;;;;;;13.55;5.95;;;;;;;12.26;100.00;102601.47;6307952;28;20487;-83
2021/09/22 07:28:52;;;;;;;11.63;5.47;;;;;;;12.31;100.00;102607.47;6310434;28;20044;-82
2021/09/22 07:31:53;;;;;;;14.10;6.75;;;;;;;12.43;100.00;102604.44;6301188;28;20052;-81
2021/09/22 07:34:54;;;;;;;12.90;5.82;;;;;;;12.53;100.00;102610.28;6300977;28;20055;-82
2021/09/22 07:37:56;;;;;;;11.40;5.00;;;;;;;12.55;100.00;102605.84;6301169;28;20055;-82
2021/09/22 07:40:59;;;;;;;12.90;5.68;;;;;;;12.67;100.00;102615.13;6300246;28;20044;-81
2021/09/22 07:44:00;;;;;;;9.73;4.43;;;;;;;12.68;100.00;102604.53;6300610;28;20045;-82
2021/09/22 07:47:02;;;;;;;7.72;4.43;;;;;;;12.73;100.00;102611.44;6301118;28;20052;-83
2021/09/22 07:50:05;;;;;;;11.88;5.18;;;;;;;12.77;100.00;102606.03;6300426;28;20055;-81
2021/09/22 07:53:06;;;;;;;12.13;5.40;;;;;;;12.84;100.00;102617.22;6300125;28;20052;-84
2021/09/22 07:56:09;;;;;;;14.25;5.50;;;;;;;12.87;100.00;102606.59;6299608;28;20045;-82
2021/09/22 07:59:10;;;;;;;15.73;5.78;;;;;;;12.93;100.00;102601.94;6299864;28;20064;-82
2021/09/22 08:02:11;;;;;;;12.48;6.72;;;;;;;12.97;100.00;102604.50;6299270;28;20055;-81
2021/09/22 08:05:13;;;;;;;11.85;5.22;;;;;;;13.00;100.00;102607.03;6299721;28;20063;-82
2021/09/22 08:08:14;;;;;;;11.52;5.88;;;;;;;13.06;100.00;102612.09;6299060;28;20063;-82
2021/09/22 08:11:18;;;;;;;12.00;6.32;;;;;;;13.09;100.00;102606.72;6299199;28;20051;-82
2021/09/22 08:14:20;;;;;;;13.18;4.78;;;;;;;13.12;100.00;102609.25;6299527;28;20135;-80
2021/09/22 08:17:21;;;;;;;12.23;5.93;;;;;;;13.14;100.00;102618.84;6299448;28;20049;-83
2021/09/22 08:20:23;;;;;;;12.85;4.80;;;;;;;13.18;100.00;102620.47;6298918;28;20049;-82
2021/09/22 08:23:24;;;;;;;10.73;4.90;;;;;;;13.34;100.00;102606.75;6297378;28;20048;-81
2021/09/22 08:26:28;;;;;;;11.63;4.90;;;;;;;13.29;100.00;102611.34;6298146;28;20045;-81
2021/09/22 08:29:29;;;;;;;15.40;4.82;;;;;;;13.34;100.00;102612.91;6298365;28;20055;-82
2021/09/22 08:32:31;;;;;;;15.45;5.50;;;;;;;13.37;100.00;102609.31;6298059;28;20048;-83
2021/09/22 08:35:33;;;;;;;8.27;4.15;;;;;;;13.39;100.00;102612.75;6298127;28;20053;-82
2021/09/22 08:38:34;;;;;;;10.60;4.85;;;;;;;13.42;100.00;102612.63;6298018;28;20044;-82
2021/09/22 08:41:37;;;;;;;9.68;4.63;;;;;;;13.49;100.00;102603.59;6297535;28;20045;-82
2021/09/22 08:44:39;;;;;;;8.38;3.53;;;;;;;13.52;100.00;102608.75;6298816;28;20055;-81
2021/09/22 08:47:42;;;;;;;8.65;4.05;;;;;;;13.71;100.00;102599.22;6297752;28;20502;-84
2021/09/22 08:50:43;;;;;;;8.30;3.95;;;;;;;13.73;100.00;102604.47;6297991;28;20568;-82
2021/09/22 08:53:44;;;;;;;8.73;4.45;;;;;;;13.73;100.00;102601.84;6297514;28;20044;-81
2021/09/22 08:56:47;;;;;;;8.65;4.53;;;;;;;13.76;100.00;102601.69;6289977;28;20048;-81
2021/09/22 08:59:48;;;;;;;9.57;4.55;;;;;;;13.85;100.00;102601.38;6292774;28;20052;-81
2021/09/22 09:02:50;;;;;;;8.32;4.50;;;;;;;13.84;100.00;102590.84;6297525;28;20150;-80
2021/09/22 09:05:51;;;;;;;9.77;4.10;;;;;;;13.90;100.00;102598.56;6297676;28;20058;-81
2021/09/22 09:08:55;;;;;;;6.78;3.45;;;;;;;13.96;100.00;102593.03;6294417;28;20051;-79
2021/09/22 09:11:58;;;;;;;6.55;2.97;;;;;;;14.10;100.00;102593.38;6297089;28;20043;-80
2021/09/22 09:15:02;;;;;;;5.70;3.50;;;;;;;14.12;100.00;102591.53;6273615;28;20056;-81
2021/09/22 09:18:12;;;;;;;6.25;3.08;;;;;;;14.21;100.00;102598.22;6272880;28;20122;-82
2021/09/22 09:21:13;;;;;;;7.72;3.20;;;;;;;14.25;100.00;102589.25;6284422;28;20044;-80
2021/09/22 09:24:29;;;;;;;4.85;3.17;;;;;;;14.28;100.00;102588.28;6282058;28;20052;-76
2021/09/22 09:27:36;;;;;;;7.75;3.63;;;;;;;14.38;100.00;102585.22;6298039;28;20052;-80
2021/09/22 09:30:45;;;;;;;8.25;3.33;;;;;;;14.41;100.00;102585.09;6297209;28;20049;-81
2021/09/22 09:33:48;;;;;;;4.95;3.03;;;;;;;14.46;100.00;102583.13;6297066;28;20053;-80
2021/09/22 09:36:50;;;;;;;7.55;2.58;;;;;;;14.57;100.00;102576.56;6298090;28;20053;-81
2021/09/22 09:39:51;;;;;;;6.15;2.95;;;;;;;14.64;100.00;102583.34;6298285;28;20045;-80
2021/09/22 09:42:57;;;;;;;5.70;3.08;;;;;;;14.66;100.00;102578.84;6300103;28;20079;-80
2021/09/22 09:45:58;;;;;;;7.00;2.85;;;;;;;14.73;100.00;102576.81;6305729;28;20491;-81
2021/09/22 09:49:03;;;;;;;5.72;3.17;;;;;;;14.86;100.00;102575.38;6305405;28;20053;-80
2021/09/22 09:52:05;;;;;;;4.22;2.72;;;;;;;14.84;100.00;102575.44;6302566;28;20492;-80
2021/09/22 09:55:16;;;;;;;6.85;2.65;;;;;;;14.85;100.00;102573.63;6302568;28;20052;-80
2021/09/22 09:58:21;;;;;;;3.97;2.60;;;;;;;14.90;100.00;102579.63;6302312;28;20052;-80
2021/09/22 10:01:36;;;;;;;4.95;2.92;;;;;;;14.99;100.00;102584.53;6302152;28;20044;-81
2021/09/22 10:04:37;;;;;;;3.65;2.40;;;;;;;15.04;100.00;102573.75;6302015;28;20431;-82
2021/09/22 10:07:40;;;;;;;7.60;3.05;;;;;;;15.02;100.00;102573.78;6302107;28;20052;-81
2021/09/22 10:10:43;;;;;;;7.40;2.92;;;;;;;15.19;100.00;102571.28;6302006;28;20060;-80
2021/09/22 10:13:46;;;;;;;6.80;2.80;;;;;;;15.17;100.00;102559.91;6301278;28;20139;-80
2021/09/22 10:16:51;;;;;;;3.78;2.20;;;;;;;15.22;99.52;102563.22;6301399;28;20449;-80
2021/09/22 10:19:54;;;;;;;2.30;1.83;;;;;;;15.21;97.69;102569.44;6302204;28;20455;-79
2021/09/22 10:22:56;;;;;;;3.88;1.38;;;;;;;15.22;96.58;102570.31;6301434;28;20044;-81
2021/09/22 10:25:57;;;;;;;3.30;1.90;;;;;;;15.35;94.94;102571.50;6301407;28;20049;-81
2021/09/22 10:29:00;;;;;;;3.25;2.10;;;;;;;15.33;96.48;102562.72;6301601;28;20499;-81
2021/09/22 10:32:03;;;;;;;2.17;1.80;;;;;;;15.32;97.20;102560.16;6301648;28;20052;-80
2021/09/22 10:35:35;;;;;;;2.67;1.60;;;;;;;15.38;97.02;102550.13;6300960;28;20048;-80
2021/09/22 10:38:48;;;;;;;3.80;2.03;;;;;;;15.49;94.43;102549.66;6300989;28;20074;-79
2021/09/22 10:41:49;;;;;;;2.42;1.75;;;;;;;15.62;94.26;102548.16;6301066;28;20040;-80
2021/09/22 10:45:10;;;;;;;4.35;2.45;;;;;;;15.77;92.31;102545.78;6300750;28;20044;-80
2021/09/22 10:48:17;;;;;;;6.95;2.38;;;;;;;15.67;92.61;102548.88;6301532;28;20052;-80
2021/09/22 10:51:28;;;;;;;6.55;2.92;;;;;;;15.75;93.71;102544.97;6301214;28;20492;-80
2021/09/22 10:54:30;;;;;;;3.67;2.15;;;;;;;15.80;94.00;102553.56;6300384;28;20056;-80
2021/09/22 10:57:32;;;;;;;4.57;2.22;;;;;;;15.84;93.33;102541.91;6300794;28;20129;-79
2021/09/22 11:00:39;;;;;;;4.35;1.95;;;;;;;15.87;93.39;102531.16;6300622;28;20055;-80
2021/09/22 11:03:57;;;;;;;2.47;1.70;;;;;;;15.79;94.46;102534.16;6300705;28;20048;-79
2021/09/22 11:07:00;;;;;;;7.32;3.13;;;;;;;15.77;93.40;102535.19;6300728;28;20135;-81
2021/09/22 11:10:32;;;;;;;3.40;2.42;;;;;;;15.82;94.71;102530.53;6300892;28;20049;-80
2021/09/22 11:13:43;;;;;;;4.80;2.38;;;;;;;15.84;94.23;102531.31;6300460;28;20056;-81
2021/09/22 11:16:46;;;;;;;3.90;2.40;;;;;;;15.87;95.53;102531.16;6300624;28;20056;-81
2021/09/22 11:19:50;;;;;;;4.13;2.30;;;;;;;15.95;93.02;102531.66;6300828;28;20040;-80
2021/09/22 11:22:52;;;;;;;3.72;2.13;;;;;;;15.93;94.65;102529.06;6300746;28;20056;-82
2021/09/22 11:25:54;;;;;;;8.48;3.05;;;;;;;15.97;94.52;102524.50;6300992;28;20507;-80
2021/09/22 11:28:58;;;;;;;3.60;2.33;;;;;;;16.10;92.30;102520.31;6301043;28;20055;-81
2021/09/22 11:32:02;;;;;;;9.07;3.20;;;;;;;16.21;90.50;102519.78;6301058;28;20044;-80
2021/09/22 11:35:06;;;;;;;6.85;2.92;;;;;;;16.17;89.08;102520.91;6300544;28;20063;-81
2021/09/22 11:38:07;;;;;;;6.35;3.17;;;;;;;16.20;90.11;102508.31;6300902;28;20053;-80
2021/09/22 11:41:09;;;;;;;5.97;2.88;;;;;;;16.17;90.98;102504.97;6300663;28;20051;-78
2021/09/22 11:44:11;;;;;;;4.57;2.67;;;;;;;16.14;92.16;102510.44;6303200;28;20129;-79
2021/09/22 11:47:14;;;;;;;4.22;2.40;;;;;;;16.09;93.68;102504.50;6312107;28;20451;-79
2021/09/22 11:50:30;;;;;;;4.82;2.53;;;;;;;16.18;91.48;102494.28;6305387;28;20429;-79
2021/09/22 11:53:33;;;;;;;4.78;2.70;;;;;;;16.43;91.46;102490.41;6300318;28;20135;-80
2021/09/22 11:56:35;;;;;;;4.68;2.53;;;;;;;16.94;88.35;102480.72;6300841;28;20559;-80
2021/09/22 11:59:37;;;;;;;4.22;2.58;;;;;;;16.99;86.32;102478.72;6300360;28;20048;-81
2021/09/22 12:02:40;;;;;;;4.57;2.65;;;;;;;16.81;87.47;102477.03;6299842;28;20048;-80
2021/09/22 12:05:43;;;;;;;8.25;3.22;;;;;;;16.75;85.10;102475.53;6299055;28;20044;-81
2021/09/22 12:08:47;;;;;;;7.63;2.92;;;;;;;16.64;87.34;102468.09;6299908;28;20052;-84
2021/09/22 12:12:08;;;;;;;5.78;2.65;;;;;;;16.60;88.45;102468.31;6300072;28;20040;-82
2021/09/22 12:15:11;;;;;;;5.50;2.97;;;;;;;16.60;85.98;102468.31;6299834;28;20049;-83
2021/09/22 12:18:16;;;;;;;6.10;2.55;;;;;;;16.84;86.78;102467.09;6300177;28;20420;-81
2021/09/22 12:21:17;;;;;;;7.43;3.00;;;;;;;17.20;87.30;102460.75;6299478;28;20041;-82
2021/09/22 12:24:20;;;;;;;8.25;3.40;;;;;;;17.74;82.45;102451.59;6299281;28;20053;-82
2021/09/22 12:27:23;;;;;;;7.50;3.35;;;;;;;18.12;80.43;102448.56;6299366;28;20037;-83
2021/09/22 12:30:31;;;;;;;6.30;2.38;;;;;;;17.90;82.49;102448.94;6298442;28;20060;-82
2021/09/22 12:33:34;;;;;;;6.18;2.47;;;;;;;18.40;79.58;102436.28;6290691;28;20048;-81
2021/09/22 12:36:35;;;;;;;4.43;2.53;;;;;;;18.74;73.95;102433.31;6290168;28;20044;-82
2021/09/22 12:39:37;;;;;;;5.70;2.60;;;;;;;18.85;72.55;102429.16;6298424;28;20048;-81
2021/09/22 12:42:42;;;;;;;4.88;2.60;;;;;;;19.03;72.15;102428.03;6312721;22;20071;-81
2021/09/22 12:45:43;;;;;;;5.93;2.83;;;;;;;18.97;70.15;102423.91;6274254;28;20060;-82
2021/09/22 12:48:46;;;;;;;6.32;2.45;;;;;;;18.79;72.79;102426.88;6276088;28;20055;-82
2021/09/22 12:51:49;;;;;;;4.00;2.22;;;;;;;19.20;72.35;102419.81;6275179;28;20044;-81
2021/09/22 12:54:51;;;;;;;6.57;2.53;;;;;;;19.46;69.51;102410.16;6274961;28;20072;-81
2021/09/22 12:57:57;;;;;;;4.20;2.47;;;;;;;19.52;68.74;102403.56;6272817;28;20059;-82
2021/09/22 13:00:59;;;;;;;5.97;2.85;;;;;;;19.11;70.48;102403.56;6274518;28;20045;-77
2021/09/22 13:04:02;;;;;;;7.60;2.92;;;;;;;18.77;72.92;102402.16;6274714;28;20056;-79
2021/09/22 13:07:04;;;;;;;4.70;2.67;;;;;;;18.19;76.04;102409.13;6273773;28;20057;-82
2021/09/22 13:10:06;;;;;;;9.27;3.75;;;;;;;17.88;77.41;102407.38;6273617;28;20045;-81
2021/09/22 13:13:14;;;;;;;7.20;3.50;;;;;;;17.87;78.53;102401.22;6274521;28;20056;-81
2021/09/22 13:16:25;;;;;;;4.50;2.57;;;;;;;18.50;77.55;102389.53;6274359;28;20407;-82
2021/09/22 13:19:30;;;;;;;5.97;3.40;;;;;;;18.87;73.60;102382.81;6273863;28;20415;-80
2021/09/22 13:22:31;;;;;;;5.97;2.83;;;;;;;18.98;73.79;102371.47;6270325;28;20048;-81
2021/09/22 13:25:32;;;;;;;6.45;3.03;;;;;;;19.02;72.69;102367.69;6274447;28;20053;-81
2021/09/22 13:28:34;;;;;;;4.55;2.70;;;;;;;18.69;73.14;102367.97;6274204;28;20052;-80
2021/09/22 13:31:38;;;;;;;7.18;2.50;;;;;;;18.31;74.18;102371.16;6273384;28;20051;-80
2021/09/22 13:34:40;;;;;;;5.65;2.88;;;;;;;18.68;73.37;102359.09;6276636;28;20045;-80
2021/09/22 13:37:42;;;;;;;8.02;2.97;;;;;;;18.73;70.11;102366.84;6275604;28;20049;-81
2021/09/22 13:40:43;;;;;;;7.10;3.28;;;;;;;18.90;72.04;102358.66;6276008;28;20044;-81
2021/09/22 13:43:45;;;;;;;7.63;3.40;;;;;;;19.13;70.47;102356.34;6274347;28;20416;-81
2021/09/22 13:46:48;;;;;;;5.65;3.00;;;;;;;19.14;71.02;102358.91;6273520;28;20447;-81
2021/09/22 13:49:51;;;;;;;4.45;2.78;;;;;;;19.32;66.78;102343.56;6273907;28;20045;-81
2021/09/22 13:52:52;;;;;;;8.07;3.13;;;;;;;19.29;69.20;102349.06;6273834;28;20044;-81
2021/09/22 13:55:54;;;;;;;6.25;3.33;;;;;;;19.65;69.40;102345.00;6274166;28;20053;-81